sensor_id;sensor_type;location;lat;lon;timestamp;P1;durP1;ratioP1;P2;durP2;ratioP2
14732;SDS011;7457;50.960;6.830;2023-04-03T00:01:36;8.93;;;6.28;;
14732;SDS011;7457;50.960;6.830;2023-04-03T00:04:03;6.03;;;5.40;;
14732;SDS011;7457;50.960;6.830;2023-04-03T00:06:30;8.75;;;5.50;;
14732;SDS011;7457;50.960;6.830;2023-04-03T00:08:56;6.63;;;5.68;;
14732;SDS011;7457;50.960;6.830;2023-04-03T00:11:21;6.88;;;6.15;;
14732;SDS011;7457;50.960;6.830;2023-04-03T00:13:47;8.73;;;6.18;;
14732;SDS011;7457;50.960;6.830;2023-04-03T00:16:13;6.55;;;5.95;;
14732;SDS011;7457;50.960;6.830;2023-04-03T00:18:39;6.97;;;6.38;;
14732;SDS011;7457;50.960;6.830;2023-04-03T00:21:05;7.43;;;6.65;;
14732;SDS011;7457;50.960;6.830;2023-04-03T00:23:31;7.72;;;6.93;;
14732;SDS011;7457;50.960;6.830;2023-04-03T00:25:58;9.00;;;6.93;;
14732;SDS011;7457;50.960;6.830;2023-04-03T00:28:24;7.88;;;7.18;;
14732;SDS011;7457;50.960;6.830;2023-04-03T00:30:50;7.90;;;7.07;;
14732;SDS011;7457;50.960;6.830;2023-04-03T00:33:16;9.32;;;6.43;;
14732;SDS011;7457;50.960;6.830;2023-04-03T00:35:42;8.38;;;7.55;;
14732;SDS011;7457;50.960;6.830;2023-04-03T00:38:08;8.95;;;8.05;;
14732;SDS011;7457;50.960;6.830;2023-04-03T00:40:35;10.57;;;8.10;;
14732;SDS011;7457;50.960;6.830;2023-04-03T00:43:05;9.45;;;7.68;;
14732;SDS011;7457;50.960;6.830;2023-04-03T00:45:41;10.00;;;7.53;;
14732;SDS011;7457;50.960;6.830;2023-04-03T00:48:14;9.65;;;7.03;;
14732;SDS011;7457;50.960;6.830;2023-04-03T00:51:02;7.72;;;7.03;;
14732;SDS011;7457;50.960;6.830;2023-04-03T00:53:31;7.40;;;6.50;;
14732;SDS011;7457;50.960;6.830;2023-04-03T00:56:21;9.13;;;7.45;;
14732;SDS011;7457;50.960;6.830;2023-04-03T00:59:23;12.48;;;8.63;;
14732;SDS011;7457;50.960;6.830;2023-04-03T01:01:47;10.43;;;8.70;;
14732;SDS011;7457;50.960;6.830;2023-04-03T01:04:26;10.60;;;8.10;;
14732;SDS011;7457;50.960;6.830;2023-04-03T01:06:54;9.05;;;8.13;;
14732;SDS011;7457;50.960;6.830;2023-04-03T01:09:21;12.25;;;9.50;;
14732;SDS011;7457;50.960;6.830;2023-04-03T01:11:47;9.88;;;8.68;;
14732;SDS011;7457;50.960;6.830;2023-04-03T01:14:13;9.73;;;8.82;;
14732;SDS011;7457;50.960;6.830;2023-04-03T01:16:38;11.07;;;9.93;;
14732;SDS011;7457;50.960;6.830;2023-04-03T01:19:05;10.05;;;9.05;;
14732;SDS011;7457;50.960;6.830;2023-04-03T01:24:26;10.02;;;8.93;;
14732;SDS011;7457;50.960;6.830;2023-04-03T01:27:00;10.27;;;8.73;;
14732;SDS011;7457;50.960;6.830;2023-04-03T01:29:28;9.18;;;7.82;;
14732;SDS011;7457;50.960;6.830;2023-04-03T01:31:55;10.63;;;8.02;;
14732;SDS011;7457;50.960;6.830;2023-04-03T01:34:22;9.27;;;8.30;;
14732;SDS011;7457;50.960;6.830;2023-04-03T01:36:48;9.07;;;8.18;;
14732;SDS011;7457;50.960;6.830;2023-04-03T01:39:15;9.20;;;7.65;;
14732;SDS011;7457;50.960;6.830;2023-04-03T01:41:41;9.50;;;8.43;;
14732;SDS011;7457;50.960;6.830;2023-04-03T01:44:07;8.30;;;7.50;;
14732;SDS011;7457;50.960;6.830;2023-04-03T01:46:34;8.60;;;7.78;;
14732;SDS011;7457;50.960;6.830;2023-04-03T01:49:00;8.85;;;7.95;;
14732;SDS011;7457;50.960;6.830;2023-04-03T01:51:26;9.20;;;8.13;;
14732;SDS011;7457;50.960;6.830;2023-04-03T01:53:52;9.23;;;8.32;;
14732;SDS011;7457;50.960;6.830;2023-04-03T01:56:17;8.95;;;8.05;;
14732;SDS011;7457;50.960;6.830;2023-04-03T01:58:43;9.10;;;8.20;;
14732;SDS011;7457;50.960;6.830;2023-04-03T02:01:08;8.90;;;8.00;;
14732;SDS011;7457;50.960;6.830;2023-04-03T02:03:34;9.55;;;7.97;;
14732;SDS011;7457;50.960;6.830;2023-04-03T02:06:00;8.75;;;7.85;;
14732;SDS011;7457;50.960;6.830;2023-04-03T02:08:26;10.00;;;8.30;;
14732;SDS011;7457;50.960;6.830;2023-04-03T02:10:51;9.60;;;8.60;;
14732;SDS011;7457;50.960;6.830;2023-04-03T02:13:17;7.05;;;6.30;;
14732;SDS011;7457;50.960;6.830;2023-04-03T02:15:43;7.90;;;7.18;;
14732;SDS011;7457;50.960;6.830;2023-04-03T02:18:10;7.85;;;7.05;;
14732;SDS011;7457;50.960;6.830;2023-04-03T02:20:37;8.93;;;8.02;;
14732;SDS011;7457;50.960;6.830;2023-04-03T02:23:03;7.57;;;6.88;;
14732;SDS011;7457;50.960;6.830;2023-04-03T02:25:30;8.02;;;7.22;;
14732;SDS011;7457;50.960;6.830;2023-04-03T02:27:56;9.27;;;8.20;;
14732;SDS011;7457;50.960;6.830;2023-04-03T02:30:22;10.70;;;8.45;;
14732;SDS011;7457;50.960;6.830;2023-04-03T02:32:47;9.20;;;8.00;;
14732;SDS011;7457;50.960;6.830;2023-04-03T02:35:13;12.27;;;8.65;;
14732;SDS011;7457;50.960;6.830;2023-04-03T02:37:39;9.23;;;8.32;;
14732;SDS011;7457;50.960;6.830;2023-04-03T02:40:04;10.20;;;7.88;;
14732;SDS011;7457;50.960;6.830;2023-04-03T02:42:31;9.85;;;8.85;;
14732;SDS011;7457;50.960;6.830;2023-04-03T02:44:56;10.35;;;9.35;;
14732;SDS011;7457;50.960;6.830;2023-04-03T02:47:22;9.23;;;8.30;;
14732;SDS011;7457;50.960;6.830;2023-04-03T02:49:48;13.63;;;8.25;;
14732;SDS011;7457;50.960;6.830;2023-04-03T02:52:14;9.95;;;8.45;;
14732;SDS011;7457;50.960;6.830;2023-04-03T02:54:40;10.20;;;8.40;;
14732;SDS011;7457;50.960;6.830;2023-04-03T02:57:06;10.07;;;8.40;;
14732;SDS011;7457;50.960;6.830;2023-04-03T02:59:34;10.07;;;9.07;;
14732;SDS011;7457;50.960;6.830;2023-04-03T03:02:00;9.88;;;8.98;;
14732;SDS011;7457;50.960;6.830;2023-04-03T03:04:26;13.93;;;9.20;;
14732;SDS011;7457;50.960;6.830;2023-04-03T03:06:52;12.20;;;9.35;;
14732;SDS011;7457;50.960;6.830;2023-04-03T03:09:17;10.48;;;8.65;;
14732;SDS011;7457;50.960;6.830;2023-04-03T03:11:43;12.77;;;10.35;;
14732;SDS011;7457;50.960;6.830;2023-04-03T03:14:09;12.85;;;9.75;;
14732;SDS011;7457;50.960;6.830;2023-04-03T03:16:35;11.88;;;9.75;;
14732;SDS011;7457;50.960;6.830;2023-04-03T03:19:01;13.40;;;9.93;;
14732;SDS011;7457;50.960;6.830;2023-04-03T03:21:26;9.73;;;8.75;;
14732;SDS011;7457;50.960;6.830;2023-04-03T03:23:52;11.07;;;9.20;;
14732;SDS011;7457;50.960;6.830;2023-04-03T03:26:18;10.38;;;9.20;;
14732;SDS011;7457;50.960;6.830;2023-04-03T03:28:43;10.02;;;9.02;;
14732;SDS011;7457;50.960;6.830;2023-04-03T03:31:09;9.82;;;8.82;;
14732;SDS011;7457;50.960;6.830;2023-04-03T03:33:35;10.30;;;8.90;;
14732;SDS011;7457;50.960;6.830;2023-04-03T03:36:01;10.38;;;9.30;;
14732;SDS011;7457;50.960;6.830;2023-04-03T03:38:27;9.82;;;8.82;;
14732;SDS011;7457;50.960;6.830;2023-04-03T03:40:53;9.05;;;8.10;;
14732;SDS011;7457;50.960;6.830;2023-04-03T03:43:19;9.68;;;8.75;;
14732;SDS011;7457;50.960;6.830;2023-04-03T03:45:46;11.23;;;9.13;;
14732;SDS011;7457;50.960;6.830;2023-04-03T03:48:15;10.55;;;9.45;;
14732;SDS011;7457;50.960;6.830;2023-04-03T03:50:41;10.35;;;9.25;;
14732;SDS011;7457;50.960;6.830;2023-04-03T03:53:06;10.20;;;8.90;;
14732;SDS011;7457;50.960;6.830;2023-04-03T03:55:32;12.25;;;10.38;;
14732;SDS011;7457;50.960;6.830;2023-04-03T03:57:58;11.35;;;8.63;;
14732;SDS011;7457;50.960;6.830;2023-04-03T04:00:25;10.32;;;8.75;;
14732;SDS011;7457;50.960;6.830;2023-04-03T04:02:51;10.15;;;9.05;;
14732;SDS011;7457;50.960;6.830;2023-04-03T04:05:17;10.70;;;8.90;;
14732;SDS011;7457;50.960;6.830;2023-04-03T04:07:43;11.20;;;9.50;;
14732;SDS011;7457;50.960;6.830;2023-04-03T04:10:09;10.52;;;9.43;;
14732;SDS011;7457;50.960;6.830;2023-04-03T04:12:35;12.40;;;8.45;;
14732;SDS011;7457;50.960;6.830;2023-04-03T04:15:01;10.73;;;8.57;;
14732;SDS011;7457;50.960;6.830;2023-04-03T04:17:27;10.82;;;9.55;;
14732;SDS011;7457;50.960;6.830;2023-04-03T04:19:53;10.32;;;9.32;;
14732;SDS011;7457;50.960;6.830;2023-04-03T04:22:18;10.70;;;9.43;;
14732;SDS011;7457;50.960;6.830;2023-04-03T04:24:44;11.02;;;8.18;;
14732;SDS011;7457;50.960;6.830;2023-04-03T04:27:09;10.60;;;8.73;;
14732;SDS011;7457;50.960;6.830;2023-04-03T04:29:35;9.82;;;8.63;;
14732;SDS011;7457;50.960;6.830;2023-04-03T04:32:02;11.65;;;9.13;;
14732;SDS011;7457;50.960;6.830;2023-04-03T04:34:29;9.23;;;8.32;;
14732;SDS011;7457;50.960;6.830;2023-04-03T04:36:55;10.43;;;9.07;;
14732;SDS011;7457;50.960;6.830;2023-04-03T04:39:20;10.70;;;8.13;;
14732;SDS011;7457;50.960;6.830;2023-04-03T04:41:46;10.93;;;7.93;;
14732;SDS011;7457;50.960;6.830;2023-04-03T04:44:12;13.82;;;8.60;;
14732;SDS011;7457;50.960;6.830;2023-04-03T04:46:37;10.57;;;8.48;;
14732;SDS011;7457;50.960;6.830;2023-04-03T04:49:03;9.15;;;8.20;;
14732;SDS011;7457;50.960;6.830;2023-04-03T04:51:29;12.27;;;9.38;;
14732;SDS011;7457;50.960;6.830;2023-04-03T04:53:55;9.35;;;8.40;;
14732;SDS011;7457;50.960;6.830;2023-04-03T04:56:20;9.50;;;8.57;;
14732;SDS011;7457;50.960;6.830;2023-04-03T04:58:46;10.60;;;9.13;;
14732;SDS011;7457;50.960;6.830;2023-04-03T05:01:12;11.07;;;9.18;;
14732;SDS011;7457;50.960;6.830;2023-04-03T05:03:38;10.27;;;8.85;;
14732;SDS011;7457;50.960;6.830;2023-04-03T05:06:04;11.27;;;10.07;;
14732;SDS011;7457;50.960;6.830;2023-04-03T05:08:30;9.65;;;8.40;;
14732;SDS011;7457;50.960;6.830;2023-04-03T05:10:56;8.85;;;7.95;;
14732;SDS011;7457;50.960;6.830;2023-04-03T05:13:21;9.52;;;8.55;;
14732;SDS011;7457;50.960;6.830;2023-04-03T05:15:47;11.20;;;8.93;;
14732;SDS011;7457;50.960;6.830;2023-04-03T05:18:13;9.30;;;8.40;;
14732;SDS011;7457;50.960;6.830;2023-04-03T05:20:38;9.45;;;8.55;;
14732;SDS011;7457;50.960;6.830;2023-04-03T05:23:04;9.25;;;8.30;;
14732;SDS011;7457;50.960;6.830;2023-04-03T05:25:31;8.95;;;7.32;;
14732;SDS011;7457;50.960;6.830;2023-04-03T05:27:56;11.82;;;8.40;;
14732;SDS011;7457;50.960;6.830;2023-04-03T05:30:22;9.35;;;8.35;;
14732;SDS011;7457;50.960;6.830;2023-04-03T05:32:48;8.82;;;7.85;;
14732;SDS011;7457;50.960;6.830;2023-04-03T05:35:13;11.85;;;8.63;;
14732;SDS011;7457;50.960;6.830;2023-04-03T05:37:40;12.00;;;9.15;;
14732;SDS011;7457;50.960;6.830;2023-04-03T05:40:06;10.55;;;8.70;;
14732;SDS011;7457;50.960;6.830;2023-04-03T05:42:32;8.60;;;7.70;;
14732;SDS011;7457;50.960;6.830;2023-04-03T05:44:58;8.38;;;7.45;;
14732;SDS011;7457;50.960;6.830;2023-04-03T05:47:24;7.70;;;6.90;;
14732;SDS011;7457;50.960;6.830;2023-04-03T05:49:49;8.55;;;7.70;;
14732;SDS011;7457;50.960;6.830;2023-04-03T05:52:22;9.05;;;7.95;;
14732;SDS011;7457;50.960;6.830;2023-04-03T05:54:51;7.22;;;6.53;;
14732;SDS011;7457;50.960;6.830;2023-04-03T05:57:17;5.43;;;4.93;;
14732;SDS011;7457;50.960;6.830;2023-04-03T05:59:44;5.93;;;5.32;;
14732;SDS011;7457;50.960;6.830;2023-04-03T06:02:14;5.53;;;5.00;;
14732;SDS011;7457;50.960;6.830;2023-04-03T06:04:42;5.93;;;4.28;;
14732;SDS011;7457;50.960;6.830;2023-04-03T06:07:11;6.28;;;5.10;;
14732;SDS011;7457;50.960;6.830;2023-04-03T06:09:39;13.10;;;9.48;;
14732;SDS011;7457;50.960;6.830;2023-04-03T06:12:04;28.20;;;17.98;;
14732;SDS011;7457;50.960;6.830;2023-04-03T06:14:30;24.85;;;18.52;;
14732;SDS011;7457;50.960;6.830;2023-04-03T06:16:56;8.05;;;7.05;;
14732;SDS011;7457;50.960;6.830;2023-04-03T06:19:22;7.40;;;6.28;;
14732;SDS011;7457;50.960;6.830;2023-04-03T06:21:48;5.53;;;4.88;;
14732;SDS011;7457;50.960;6.830;2023-04-03T06:24:15;6.00;;;4.53;;
14732;SDS011;7457;50.960;6.830;2023-04-03T06:26:45;5.60;;;4.13;;
14732;SDS011;7457;50.960;6.830;2023-04-03T06:29:11;6.32;;;4.28;;
14732;SDS011;7457;50.960;6.830;2023-04-03T06:31:36;9.15;;;3.85;;
14732;SDS011;7457;50.960;6.830;2023-04-03T06:34:03;5.57;;;3.60;;
14732;SDS011;7457;50.960;6.830;2023-04-03T06:36:29;4.43;;;3.28;;
14732;SDS011;7457;50.960;6.830;2023-04-03T06:38:55;6.63;;;3.60;;
14732;SDS011;7457;50.960;6.830;2023-04-03T06:41:20;3.92;;;3.40;;
14732;SDS011;7457;50.960;6.830;2023-04-03T06:43:46;3.85;;;3.38;;
14732;SDS011;7457;50.960;6.830;2023-04-03T06:46:16;5.35;;;3.17;;
14732;SDS011;7457;50.960;6.830;2023-04-03T06:48:43;5.07;;;3.60;;
14732;SDS011;7457;50.960;6.830;2023-04-03T06:51:42;5.78;;;3.78;;
14732;SDS011;7457;50.960;6.830;2023-04-03T06:54:02;4.22;;;2.65;;
14732;SDS011;7457;50.960;6.830;2023-04-03T06:56:29;2.30;;;1.83;;
14732;SDS011;7457;50.960;6.830;2023-04-03T06:58:55;4.65;;;2.30;;
14732;SDS011;7457;50.960;6.830;2023-04-03T07:01:23;2.25;;;2.00;;
14732;SDS011;7457;50.960;6.830;2023-04-03T07:03:51;5.53;;;2.22;;
14732;SDS011;7457;50.960;6.830;2023-04-03T07:06:17;2.92;;;1.90;;
14732;SDS011;7457;50.960;6.830;2023-04-03T07:08:44;7.13;;;2.10;;
14732;SDS011;7457;50.960;6.830;2023-04-03T07:11:10;2.75;;;1.85;;
14732;SDS011;7457;50.960;6.830;2023-04-03T07:13:40;4.03;;;1.92;;
14732;SDS011;7457;50.960;6.830;2023-04-03T07:16:06;8.48;;;2.25;;
14732;SDS011;7457;50.960;6.830;2023-04-03T07:18:33;4.88;;;2.00;;
14732;SDS011;7457;50.960;6.830;2023-04-03T07:20:59;3.38;;;1.80;;
14732;SDS011;7457;50.960;6.830;2023-04-03T07:23:25;2.90;;;1.92;;
14732;SDS011;7457;50.960;6.830;2023-04-03T07:25:51;4.00;;;2.00;;
14732;SDS011;7457;50.960;6.830;2023-04-03T07:28:18;2.47;;;1.70;;
14732;SDS011;7457;50.960;6.830;2023-04-03T07:30:49;3.65;;;1.92;;
14732;SDS011;7457;50.960;6.830;2023-04-03T07:33:16;2.83;;;1.75;;
14732;SDS011;7457;50.960;6.830;2023-04-03T07:35:43;2.65;;;1.92;;
14732;SDS011;7457;50.960;6.830;2023-04-03T07:38:10;2.35;;;1.55;;
14732;SDS011;7457;50.960;6.830;2023-04-03T07:40:39;3.88;;;1.70;;
14732;SDS011;7457;50.960;6.830;2023-04-03T07:43:05;2.42;;;1.80;;
14732;SDS011;7457;50.960;6.830;2023-04-03T07:45:31;3.92;;;2.10;;
14732;SDS011;7457;50.960;6.830;2023-04-03T07:48:00;5.85;;;1.98;;
14732;SDS011;7457;50.960;6.830;2023-04-03T07:50:30;2.58;;;1.80;;
14732;SDS011;7457;50.960;6.830;2023-04-03T07:52:57;3.45;;;2.15;;
14732;SDS011;7457;50.960;6.830;2023-04-03T07:55:23;2.88;;;1.77;;
14732;SDS011;7457;50.960;6.830;2023-04-03T07:57:49;4.13;;;1.88;;
14732;SDS011;7457;50.960;6.830;2023-04-03T08:00:15;3.60;;;2.00;;
14732;SDS011;7457;50.960;6.830;2023-04-03T08:02:42;5.05;;;1.60;;
14732;SDS011;7457;50.960;6.830;2023-04-03T08:05:09;4.45;;;1.80;;
14732;SDS011;7457;50.960;6.830;2023-04-03T08:07:36;3.25;;;1.80;;
14732;SDS011;7457;50.960;6.830;2023-04-03T08:10:03;3.42;;;1.65;;
14732;SDS011;7457;50.960;6.830;2023-04-03T08:12:29;3.40;;;1.77;;
14732;SDS011;7457;50.960;6.830;2023-04-03T08:14:56;3.42;;;1.88;;
14732;SDS011;7457;50.960;6.830;2023-04-03T08:17:24;3.60;;;1.50;;
14732;SDS011;7457;50.960;6.830;2023-04-03T08:19:50;1.98;;;1.48;;
14732;SDS011;7457;50.960;6.830;2023-04-03T08:22:15;1.50;;;1.40;;
14732;SDS011;7457;50.960;6.830;2023-04-03T08:24:41;4.10;;;1.60;;
14732;SDS011;7457;50.960;6.830;2023-04-03T08:27:07;4.43;;;1.63;;
14732;SDS011;7457;50.960;6.830;2023-04-03T08:29:34;3.78;;;1.60;;
14732;SDS011;7457;50.960;6.830;2023-04-03T08:31:59;6.40;;;2.03;;
14732;SDS011;7457;50.960;6.830;2023-04-03T08:34:25;2.10;;;1.30;;
14732;SDS011;7457;50.960;6.830;2023-04-03T08:36:51;2.78;;;1.20;;
14732;SDS011;7457;50.960;6.830;2023-04-03T08:39:16;3.00;;;1.70;;
14732;SDS011;7457;50.960;6.830;2023-04-03T08:41:43;1.77;;;1.40;;
14732;SDS011;7457;50.960;6.830;2023-04-03T08:52:38;4.25;;;1.70;;
14732;SDS011;7457;50.960;6.830;2023-04-03T08:55:52;3.15;;;1.65;;
14732;SDS011;7457;50.960;6.830;2023-04-03T08:58:01;1.80;;;1.70;;
14732;SDS011;7457;50.960;6.830;2023-04-03T09:00:41;2.88;;;1.80;;
14732;SDS011;7457;50.960;6.830;2023-04-03T09:03:12;2.05;;;1.35;;
14732;SDS011;7457;50.960;6.830;2023-04-03T09:05:40;2.92;;;1.65;;
14732;SDS011;7457;50.960;6.830;2023-04-03T09:10:47;5.78;;;1.90;;
14732;SDS011;7457;50.960;6.830;2023-04-03T09:16:02;4.57;;;1.60;;
14732;SDS011;7457;50.960;6.830;2023-04-03T09:18:41;2.67;;;1.80;;
14732;SDS011;7457;50.960;6.830;2023-04-03T09:26:17;1.98;;;1.52;;
14732;SDS011;7457;50.960;6.830;2023-04-03T09:28:46;2.58;;;1.48;;
14732;SDS011;7457;50.960;6.830;2023-04-03T09:31:20;3.97;;;1.63;;
14732;SDS011;7457;50.960;6.830;2023-04-03T09:33:49;2.08;;;1.38;;
14732;SDS011;7457;50.960;6.830;2023-04-03T09:39:26;2.05;;;1.20;;
14732;SDS011;7457;50.960;6.830;2023-04-03T09:44:30;2.78;;;1.38;;
14732;SDS011;7457;50.960;6.830;2023-04-03T09:46:58;4.53;;;1.30;;
14732;SDS011;7457;50.960;6.830;2023-04-03T09:49:24;3.20;;;1.52;;
14732;SDS011;7457;50.960;6.830;2023-04-03T09:51:51;4.10;;;1.50;;
14732;SDS011;7457;50.960;6.830;2023-04-03T09:54:36;3.22;;;1.45;;
14732;SDS011;7457;50.960;6.830;2023-04-03T09:57:08;3.92;;;1.92;;
14732;SDS011;7457;50.960;6.830;2023-04-03T09:59:38;3.28;;;1.30;;
14732;SDS011;7457;50.960;6.830;2023-04-03T10:04:46;1.80;;;1.58;;
14732;SDS011;7457;50.960;6.830;2023-04-03T10:09:58;1.85;;;1.30;;
14732;SDS011;7457;50.960;6.830;2023-04-03T10:12:26;3.22;;;1.48;;
14732;SDS011;7457;50.960;6.830;2023-04-03T10:27:42;1.63;;;1.13;;
14732;SDS011;7457;50.960;6.830;2023-04-03T10:30:39;2.20;;;1.40;;
14732;SDS011;7457;50.960;6.830;2023-04-03T10:39:02;2.15;;;0.90;;
14732;SDS011;7457;50.960;6.830;2023-04-03T10:41:35;1.75;;;1.48;;
14732;SDS011;7457;50.960;6.830;2023-04-03T10:47:20;1.38;;;1.15;;
14732;SDS011;7457;50.960;6.830;2023-04-03T10:52:45;4.65;;;1.38;;
14732;SDS011;7457;50.960;6.830;2023-04-03T10:57:50;0.93;;;0.90;;
14732;SDS011;7457;50.960;6.830;2023-04-03T11:00:22;1.80;;;1.35;;
14732;SDS011;7457;50.960;6.830;2023-04-03T11:03:03;1.42;;;1.10;;
14732;SDS011;7457;50.960;6.830;2023-04-03T11:05:52;1.30;;;1.17;;
14732;SDS011;7457;50.960;6.830;2023-04-03T11:08:25;2.67;;;1.23;;
14732;SDS011;7457;50.960;6.830;2023-04-03T11:11:00;1.98;;;1.20;;
14732;SDS011;7457;50.960;6.830;2023-04-03T11:16:07;3.40;;;1.40;;
14732;SDS011;7457;50.960;6.830;2023-04-03T11:18:39;2.88;;;1.10;;
14732;SDS011;7457;50.960;6.830;2023-04-03T11:21:31;2.20;;;1.08;;
14732;SDS011;7457;50.960;6.830;2023-04-03T11:24:04;1.42;;;1.20;;
14732;SDS011;7457;50.960;6.830;2023-04-03T11:26:38;0.98;;;0.80;;
14732;SDS011;7457;50.960;6.830;2023-04-03T11:29:13;1.38;;;1.15;;
14732;SDS011;7457;50.960;6.830;2023-04-03T11:37:06;3.75;;;1.10;;
14732;SDS011;7457;50.960;6.830;2023-04-03T11:40:04;2.42;;;1.15;;
14732;SDS011;7457;50.960;6.830;2023-04-03T11:42:55;2.03;;;1.25;;
14732;SDS011;7457;50.960;6.830;2023-04-03T11:48:04;1.75;;;1.50;;
14732;SDS011;7457;50.960;6.830;2023-04-03T11:50:48;1.98;;;1.33;;
14732;SDS011;7457;50.960;6.830;2023-04-03T11:58:16;1.67;;;1.25;;
14732;SDS011;7457;50.960;6.830;2023-04-03T12:03:55;1.30;;;1.00;;
14732;SDS011;7457;50.960;6.830;2023-04-03T12:08:58;1.90;;;1.00;;
14732;SDS011;7457;50.960;6.830;2023-04-03T12:11:25;2.60;;;1.52;;
14732;SDS011;7457;50.960;6.830;2023-04-03T12:16:27;2.70;;;1.38;;
14732;SDS011;7457;50.960;6.830;2023-04-03T12:24:33;1.15;;;0.98;;
14732;SDS011;7457;50.960;6.830;2023-04-03T12:38:00;1.13;;;0.93;;
14732;SDS011;7457;50.960;6.830;2023-04-03T12:48:33;2.33;;;1.02;;
14732;SDS011;7457;50.960;6.830;2023-04-03T12:51:04;8.98;;;5.25;;
14732;SDS011;7457;50.960;6.830;2023-04-03T12:53:32;2.42;;;1.10;;
14732;SDS011;7457;50.960;6.830;2023-04-03T12:56:22;1.00;;;0.98;;
14732;SDS011;7457;50.960;6.830;2023-04-03T12:58:51;1.58;;;1.20;;
14732;SDS011;7457;50.960;6.830;2023-04-03T13:01:20;1.38;;;1.27;;
14732;SDS011;7457;50.960;6.830;2023-04-03T13:03:57;2.75;;;1.58;;
14732;SDS011;7457;50.960;6.830;2023-04-03T13:06:42;5.10;;;1.55;;
14732;SDS011;7457;50.960;6.830;2023-04-03T13:09:21;1.42;;;1.00;;
14732;SDS011;7457;50.960;6.830;2023-04-03T13:12:03;0.98;;;0.80;;
14732;SDS011;7457;50.960;6.830;2023-04-03T13:14:39;2.55;;;1.13;;
14732;SDS011;7457;50.960;6.830;2023-04-03T13:17:15;1.73;;;0.85;;
14732;SDS011;7457;50.960;6.830;2023-04-03T13:19:42;3.25;;;1.17;;
14732;SDS011;7457;50.960;6.830;2023-04-03T13:22:15;3.55;;;2.00;;
14732;SDS011;7457;50.960;6.830;2023-04-03T13:24:49;1.95;;;1.30;;
14732;SDS011;7457;50.960;6.830;2023-04-03T13:27:16;4.55;;;2.50;;
14732;SDS011;7457;50.960;6.830;2023-04-03T13:29:43;2.08;;;1.45;;
14732;SDS011;7457;50.960;6.830;2023-04-03T13:32:17;2.90;;;1.10;;
14732;SDS011;7457;50.960;6.830;2023-04-03T13:34:47;1.40;;;1.10;;
14732;SDS011;7457;50.960;6.830;2023-04-03T13:37:52;1.98;;;0.85;;
14732;SDS011;7457;50.960;6.830;2023-04-03T13:40:18;2.45;;;1.25;;
14732;SDS011;7457;50.960;6.830;2023-04-03T13:42:43;3.28;;;1.55;;
14732;SDS011;7457;50.960;6.830;2023-04-03T13:47:42;1.50;;;1.30;;
14732;SDS011;7457;50.960;6.830;2023-04-03T13:52:55;3.28;;;1.50;;
14732;SDS011;7457;50.960;6.830;2023-04-03T13:55:36;4.18;;;1.30;;
14732;SDS011;7457;50.960;6.830;2023-04-03T14:00:51;1.80;;;1.40;;
14732;SDS011;7457;50.960;6.830;2023-04-03T14:06:17;2.22;;;1.30;;
14732;SDS011;7457;50.960;6.830;2023-04-03T14:08:43;1.38;;;1.15;;
14732;SDS011;7457;50.960;6.830;2023-04-03T14:11:17;1.40;;;1.30;;
14732;SDS011;7457;50.960;6.830;2023-04-03T14:13:46;2.47;;;1.40;;
14732;SDS011;7457;50.960;6.830;2023-04-03T14:16:16;3.03;;;1.40;;
14732;SDS011;7457;50.960;6.830;2023-04-03T14:18:44;1.58;;;1.20;;
14732;SDS011;7457;50.960;6.830;2023-04-03T14:21:12;1.80;;;1.13;;
14732;SDS011;7457;50.960;6.830;2023-04-03T14:23:39;1.77;;;1.20;;
14732;SDS011;7457;50.960;6.830;2023-04-03T14:26:23;4.75;;;1.45;;
14732;SDS011;7457;50.960;6.830;2023-04-03T14:28:52;1.95;;;1.40;;
14732;SDS011;7457;50.960;6.830;2023-04-03T14:31:19;1.85;;;1.50;;
14732;SDS011;7457;50.960;6.830;2023-04-03T14:33:46;2.17;;;1.50;;
14732;SDS011;7457;50.960;6.830;2023-04-03T14:38:47;3.63;;;1.38;;
14732;SDS011;7457;50.960;6.830;2023-04-03T14:41:15;2.38;;;1.38;;
14732;SDS011;7457;50.960;6.830;2023-04-03T14:43:43;1.95;;;1.58;;
14732;SDS011;7457;50.960;6.830;2023-04-03T14:46:17;1.63;;;1.27;;
14732;SDS011;7457;50.960;6.830;2023-04-03T14:48:53;1.30;;;1.20;;
14732;SDS011;7457;50.960;6.830;2023-04-03T14:51:19;1.52;;;1.42;;
14732;SDS011;7457;50.960;6.830;2023-04-03T14:53:45;1.88;;;1.27;;
14732;SDS011;7457;50.960;6.830;2023-04-03T14:56:19;1.55;;;1.38;;
14732;SDS011;7457;50.960;6.830;2023-04-03T14:58:59;1.40;;;1.30;;
14732;SDS011;7457;50.960;6.830;2023-04-03T15:01:26;1.73;;;1.50;;
14732;SDS011;7457;50.960;6.830;2023-04-03T15:03:53;2.17;;;1.23;;
14732;SDS011;7457;50.960;6.830;2023-04-03T15:06:19;1.42;;;1.10;;
14732;SDS011;7457;50.960;6.830;2023-04-03T15:08:46;1.30;;;1.20;;
14732;SDS011;7457;50.960;6.830;2023-04-03T15:11:13;2.47;;;1.35;;
14732;SDS011;7457;50.960;6.830;2023-04-03T15:13:39;1.85;;;1.50;;
14732;SDS011;7457;50.960;6.830;2023-04-03T15:16:06;3.25;;;1.63;;
14732;SDS011;7457;50.960;6.830;2023-04-03T15:18:43;1.42;;;1.30;;
14732;SDS011;7457;50.960;6.830;2023-04-03T15:21:10;2.13;;;1.52;;
14732;SDS011;7457;50.960;6.830;2023-04-03T15:23:35;2.55;;;1.50;;
14732;SDS011;7457;50.960;6.830;2023-04-03T15:26:01;1.35;;;1.25;;
14732;SDS011;7457;50.960;6.830;2023-04-03T15:28:28;2.47;;;1.50;;
14732;SDS011;7457;50.960;6.830;2023-04-03T15:31:00;2.03;;;1.38;;
14732;SDS011;7457;50.960;6.830;2023-04-03T15:33:26;1.20;;;1.10;;
14732;SDS011;7457;50.960;6.830;2023-04-03T15:35:52;3.05;;;1.30;;
14732;SDS011;7457;50.960;6.830;2023-04-03T15:38:18;1.10;;;1.00;;
14732;SDS011;7457;50.960;6.830;2023-04-03T15:40:44;2.10;;;1.30;;
14732;SDS011;7457;50.960;6.830;2023-04-03T15:43:12;3.13;;;1.95;;
14732;SDS011;7457;50.960;6.830;2023-04-03T15:45:38;3.15;;;1.58;;
14732;SDS011;7457;50.960;6.830;2023-04-03T15:48:04;3.25;;;1.85;;
14732;SDS011;7457;50.960;6.830;2023-04-03T15:50:31;2.20;;;1.77;;
14732;SDS011;7457;50.960;6.830;2023-04-03T15:52:57;2.67;;;1.77;;
14732;SDS011;7457;50.960;6.830;2023-04-03T15:55:26;3.35;;;0.85;;
14732;SDS011;7457;50.960;6.830;2023-04-03T15:57:54;2.47;;;1.42;;
14732;SDS011;7457;50.960;6.830;2023-04-03T16:00:21;1.98;;;1.45;;
14732;SDS011;7457;50.960;6.830;2023-04-03T16:02:48;1.40;;;1.30;;
14732;SDS011;7457;50.960;6.830;2023-04-03T16:05:19;1.55;;;1.33;;
14732;SDS011;7457;50.960;6.830;2023-04-03T16:07:45;3.15;;;1.52;;
14732;SDS011;7457;50.960;6.830;2023-04-03T16:10:12;5.18;;;1.50;;
14732;SDS011;7457;50.960;6.830;2023-04-03T16:12:38;2.08;;;1.35;;
14732;SDS011;7457;50.960;6.830;2023-04-03T16:15:04;2.60;;;1.38;;
14732;SDS011;7457;50.960;6.830;2023-04-03T16:17:31;2.50;;;1.58;;
14732;SDS011;7457;50.960;6.830;2023-04-03T16:19:58;2.95;;;1.52;;
14732;SDS011;7457;50.960;6.830;2023-04-03T16:22:25;4.00;;;1.58;;
14732;SDS011;7457;50.960;6.830;2023-04-03T16:24:52;1.83;;;1.33;;
14732;SDS011;7457;50.960;6.830;2023-04-03T16:27:18;3.33;;;1.80;;
14732;SDS011;7457;50.960;6.830;2023-04-03T16:29:43;3.03;;;1.52;;
14732;SDS011;7457;50.960;6.830;2023-04-03T16:32:09;2.17;;;1.30;;
14732;SDS011;7457;50.960;6.830;2023-04-03T16:34:35;6.35;;;1.75;;
14732;SDS011;7457;50.960;6.830;2023-04-03T16:37:01;2.90;;;1.15;;
14732;SDS011;7457;50.960;6.830;2023-04-03T16:39:26;2.60;;;1.42;;
14732;SDS011;7457;50.960;6.830;2023-04-03T16:41:52;2.58;;;1.23;;
14732;SDS011;7457;50.960;6.830;2023-04-03T16:44:18;1.35;;;1.30;;
14732;SDS011;7457;50.960;6.830;2023-04-03T16:46:43;3.22;;;1.80;;
14732;SDS011;7457;50.960;6.830;2023-04-03T16:49:09;1.80;;;1.58;;
14732;SDS011;7457;50.960;6.830;2023-04-03T16:51:35;2.08;;;1.48;;
14732;SDS011;7457;50.960;6.830;2023-04-03T16:54:01;2.60;;;1.50;;
14732;SDS011;7457;50.960;6.830;2023-04-03T16:56:26;2.53;;;1.63;;
14732;SDS011;7457;50.960;6.830;2023-04-03T16:58:52;4.15;;;2.10;;
14732;SDS011;7457;50.960;6.830;2023-04-03T17:01:19;3.65;;;1.65;;
14732;SDS011;7457;50.960;6.830;2023-04-03T17:03:45;2.72;;;1.60;;
14732;SDS011;7457;50.960;6.830;2023-04-03T17:06:12;1.70;;;1.60;;
14732;SDS011;7457;50.960;6.830;2023-04-03T17:08:43;2.65;;;1.48;;